Time;durP1;ratioP1;P1;durP2;ratioP2;P2;SDS_P1;SDS_P2;PMS_P1;PMS_P2;Temp;Humidity;BMP_temperature;BMP_pressure;BME280_temperature;BME280_humidity;BME280_pressure;Samples;Min_cycle;Max_cycle;Signal;HPM_P1;HPM_P2
2023/05/14 00:00:16;;;;;;;2.10;2.00;;;19.30;82.80;;;;;;5042526;28;20534;-82
2023/05/14 00:02:42;;;;;;;2.25;2.15;;;19.40;83.00;;;;;;5043330;28;20557;-82
2023/05/14 00:05:08;;;;;;;2.28;2.17;;;19.30;82.90;;;;;;5043360;28;20056;-81
2023/05/14 00:07:34;;;;;;;2.25;1.75;;;19.30;82.90;;;;;;5045945;28;20103;-82
2023/05/14 00:10:00;;;;;;;1.90;1.80;;;19.30;83.00;;;;;;5029174;28;20061;-82
2023/05/14 00:12:25;;;;;;;1.95;1.90;;;19.30;83.00;;;;;;5039539;28;20048;-81
2023/05/14 00:14:52;;;;;;;2.42;2.22;;;19.30;83.10;;;;;;5015615;28;20028;-82
2023/05/14 00:17:17;;;;;;;2.10;2.00;;;19.30;83.00;;;;;;5045009;28;20040;-82
2023/05/14 00:19:43;;;;;;;2.10;2.00;;;19.30;83.10;;;;;;5030560;28;20045;-82
2023/05/14 00:22:08;;;;;;;2.70;2.60;;;19.30;83.00;;;;;;5041497;28;20133;-81
2023/05/14 00:24:34;;;;;;;2.10;2.00;;;19.30;83.00;;;;;;5047504;28;20051;-82
2023/05/14 00:27:00;;;;;;;1.92;1.83;;;19.30;82.90;;;;;;5045791;28;20037;-82
2023/05/14 00:29:25;;;;;;;1.90;1.80;;;19.30;82.80;;;;;;5039724;28;20044;-82
2023/05/14 00:31:51;;;;;;;2.17;2.08;;;19.30;82.90;;;;;;5043052;28;20037;-82
2023/05/14 00:34:17;;;;;;;1.70;1.65;;;19.30;82.90;;;;;;5046207;28;20560;-81
2023/05/14 00:36:42;;;;;;;2.00;1.90;;;19.30;82.80;;;;;;5046976;28;20037;-82
2023/05/14 00:39:08;;;;;;;2.10;2.00;;;19.30;82.90;;;;;;5017909;28;20044;-82
2023/05/14 00:41:33;;;;;;;1.92;1.83;;;19.30;82.90;;;;;;5052753;28;20048;-82
2023/05/14 00:43:59;;;;;;;1.48;1.48;;;19.30;82.90;;;;;;5051393;28;20045;-82
2023/05/14 00:46:25;;;;;;;2.05;1.95;;;19.20;82.90;;;;;;5049168;28;20082;-82
2023/05/14 00:48:50;;;;;;;2.08;1.98;;;19.30;82.80;;;;;;5061304;28;20482;-82
2023/05/14 00:51:16;;;;;;;2.53;1.95;;;19.30;82.80;;;;;;5050666;28;20086;-82
2023/05/14 00:53:42;;;;;;;2.08;1.90;;;19.30;82.80;;;;;;5027025;28;20042;-82
2023/05/14 00:56:07;;;;;;;1.83;1.83;;;19.30;82.90;;;;;;5035003;28;20048;-82
2023/05/14 00:58:33;;;;;;;2.05;1.95;;;19.30;82.90;;;;;;5046927;28;20696;-82
2023/05/14 01:00:59;;;;;;;1.60;1.60;;;19.20;83.00;;;;;;5048329;28;20548;-82
2023/05/14 01:03:25;;;;;;;2.00;1.90;;;19.20;83.10;;;;;;5033252;28;20049;-81
2023/05/14 01:05:57;;;;;;;1.90;1.80;;;19.20;83.10;;;;;;5051012;28;20131;-82
2023/05/14 01:08:39;;;;;;;1.85;1.75;;;19.20;83.10;;;;;;5048220;28;20509;-81
2023/05/14 01:11:23;;;;;;;1.70;1.65;;;19.20;83.10;;;;;;5040445;28;20056;-82
2023/05/14 01:14:18;;;;;;;1.70;1.60;;;19.20;83.10;;;;;;5050362;28;20060;-82
2023/05/14 01:16:44;;;;;;;1.58;1.58;;;19.20;83.10;;;;;;5047292;28;20911;-82
2023/05/14 01:19:28;;;;;;;1.70;1.60;;;19.20;83.00;;;;;;5049017;28;20040;-82
2023/05/14 01:21:53;;;;;;;1.70;1.70;;;19.20;83.00;;;;;;5031043;28;20068;-83
2023/05/14 01:24:19;;;;;;;1.48;1.48;;;19.20;83.00;;;;;;5049090;28;20079;-81
2023/05/14 01:26:45;;;;;;;1.92;1.90;;;19.30;82.90;;;;;;5036711;28;20403;-81
2023/05/14 01:29:15;;;;;;;1.83;1.73;;;19.30;82.80;;;;;;5024023;28;20052;-82
2023/05/14 01:31:42;;;;;;;1.50;1.40;;;19.30;82.90;;;;;;5051794;28;20048;-82
2023/05/14 01:34:08;;;;;;;2.10;2.00;;;19.30;83.00;;;;;;5019287;28;20036;-81
2023/05/14 01:36:33;;;;;;;1.63;1.63;;;19.30;82.90;;;;;;5041010;28;20037;-81
2023/05/14 01:38:59;;;;;;;2.17;1.98;;;19.20;83.00;;;;;;5012813;28;20056;-81
2023/05/14 01:41:25;;;;;;;3.05;1.98;;;19.20;83.10;;;;;;5018734;28;20045;-81
2023/05/14 01:43:51;;;;;;;2.08;1.98;;;19.20;83.00;;;;;;5041861;28;20049;-81
2023/05/14 01:46:18;;;;;;;1.35;1.35;;;19.20;83.10;;;;;;5043481;28;20048;-80
2023/05/14 01:48:44;;;;;;;1.60;1.60;;;19.20;83.30;;;;;;5052459;28;20040;-81
2023/05/14 01:51:09;;;;;;;1.45;1.38;;;19.10;83.40;;;;;;5050120;28;20045;-81
2023/05/14 01:53:35;;;;;;;1.60;1.60;;;19.20;83.40;;;;;;5041701;28;20123;-81
2023/05/14 01:56:01;;;;;;;1.40;1.40;;;19.10;83.50;;;;;;5044237;28;20051;-81
2023/05/14 01:58:26;;;;;;;1.83;1.73;;;19.10;83.40;;;;;;5045131;28;20045;-81
2023/05/14 02:00:52;;;;;;;1.38;1.27;;;19.20;83.50;;;;;;5030185;28;20488;-82
2023/05/14 02:03:17;;;;;;;1.92;1.83;;;19.10;83.50;;;;;;5039997;28;20033;-81
2023/05/14 02:05:43;;;;;;;1.92;1.83;;;19.10;83.40;;;;;;5041918;28;20060;-81
2023/05/14 02:08:08;;;;;;;1.70;1.60;;;19.10;83.50;;;;;;5026971;28;20049;-81
2023/05/14 02:10:34;;;;;;;1.80;1.70;;;19.10;84.30;;;;;;5045275;28;20088;-81
2023/05/14 02:13:00;;;;;;;2.03;1.92;;;19.10;83.50;;;;;;5045383;28;20056;-80
2023/05/14 02:15:25;;;;;;;1.65;1.65;;;19.20;83.60;;;;;;5046228;28;20045;-81
2023/05/14 02:17:51;;;;;;;1.90;1.80;;;19.10;83.60;;;;;;5048725;28;20494;-81
2023/05/14 02:20:16;;;;;;;2.03;1.92;;;19.10;83.50;;;;;;5042724;28;20037;-80
2023/05/14 02:22:44;;;;;;;1.70;1.70;;;19.10;83.40;;;;;;5045600;28;20530;-81
2023/05/14 02:25:10;;;;;;;2.10;2.00;;;19.10;83.50;;;;;;5046657;28;20099;-81
2023/05/14 02:27:35;;;;;;;1.90;1.80;;;19.10;84.30;;;;;;5020880;28;20056;-81
2023/05/14 02:30:01;;;;;;;1.67;1.67;;;19.10;83.40;;;;;;5044666;28;20040;-81
2023/05/14 02:32:27;;;;;;;2.05;1.95;;;19.10;83.40;;;;;;5041167;28;20516;-80
2023/05/14 02:34:52;;;;;;;2.10;2.00;;;19.10;83.40;;;;;;5045023;28;20025;-81
2023/05/14 02:37:18;;;;;;;1.80;1.70;;;19.10;83.50;;;;;;5048795;28;20056;-80
2023/05/14 02:39:44;;;;;;;2.15;2.05;;;19.10;83.50;;;;;;5049501;28;20529;-81
2023/05/14 02:42:09;;;;;;;1.90;1.80;;;19.10;83.60;;;;;;5048368;28;20049;-81
2023/05/14 02:44:35;;;;;;;2.00;1.90;;;19.10;83.50;;;;;;5045414;28;20391;-81
2023/05/14 02:47:00;;;;;;;1.90;1.80;;;19.10;83.60;;;;;;5047758;28;20037;-81
2023/05/14 02:49:26;;;;;;;1.83;1.73;;;19.10;83.50;;;;;;5047401;28;20040;-81
2023/05/14 02:51:53;;;;;;;1.95;1.88;;;19.10;83.60;;;;;;5051201;28;20510;-81
2023/05/14 02:54:18;;;;;;;1.95;1.85;;;19.10;83.60;;;;;;5044345;28;20041;-80
2023/05/14 02:56:44;;;;;;;1.95;1.85;;;19.10;83.60;;;;;;5029769;28;20122;-80
2023/05/14 02:59:10;;;;;;;2.00;1.90;;;19.10;83.60;;;;;;5025235;28;20076;-81
2023/05/14 03:01:35;;;;;;;1.70;1.70;;;19.10;83.50;;;;;;5069030;28;20045;-81
2023/05/14 03:04:01;;;;;;;1.80;1.70;;;19.10;83.60;;;;;;5050433;28;20502;-81
2023/05/14 03:06:26;;;;;;;1.77;1.77;;;19.10;83.60;;;;;;5045151;28;20091;-81
2023/05/14 03:08:52;;;;;;;1.98;1.88;;;19.10;83.60;;;;;;5047094;28;20083;-81
2023/05/14 03:11:17;;;;;;;2.05;1.95;;;19.10;83.60;;;;;;5042719;28;20048;-80
2023/05/14 03:13:43;;;;;;;2.40;2.10;;;19.10;84.40;;;;;;5046705;28;20495;-80
2023/05/14 03:16:08;;;;;;;1.70;1.70;;;19.10;83.60;;;;;;5048904;28;20399;-81
2023/05/14 03:18:35;;;;;;;1.63;1.52;;;19.00;83.60;;;;;;5046758;28;20037;-80
2023/05/14 03:21:01;;;;;;;1.90;1.80;;;19.00;83.60;;;;;;5045218;28;20367;-81
2023/05/14 03:23:26;;;;;;;1.98;1.88;;;19.10;83.60;;;;;;5044071;28;20635;-80
2023/05/14 03:25:52;;;;;;;2.00;1.90;;;19.10;83.60;;;;;;5045817;28;20452;-81
2023/05/14 03:28:17;;;;;;;1.58;1.58;;;19.00;83.60;;;;;;5032805;28;20479;-81
2023/05/14 03:30:43;;;;;;;1.98;1.88;;;19.10;83.70;;;;;;5057360;28;20041;-81
2023/05/14 03:33:08;;;;;;;1.80;1.80;;;19.00;83.60;;;;;;5047093;28;20518;-81
2023/05/14 03:35:34;;;;;;;2.03;1.92;;;19.00;83.60;;;;;;5034659;28;20060;-80
2023/05/14 03:38:00;;;;;;;2.20;2.10;;;19.00;84.30;;;;;;5046930;28;20033;-81
2023/05/14 03:40:25;;;;;;;2.20;2.10;;;19.00;83.70;;;;;;5047129;28;20052;-81
2023/05/14 03:42:51;;;;;;;2.10;2.00;;;19.00;83.60;;;;;;5032029;28;20460;-80
2023/05/14 03:45:16;;;;;;;2.20;2.10;;;19.10;83.80;;;;;;5044138;28;20064;-81
2023/05/14 03:47:42;;;;;;;2.28;1.98;;;19.00;83.60;;;;;;5045368;28;20047;-80
2023/05/14 03:50:08;;;;;;;2.33;2.05;;;19.00;83.60;;;;;;5048182;28;20037;-80
2023/05/14 03:52:33;;;;;;;2.10;2.00;;;19.00;83.60;;;;;;5044756;28;20041;-80
2023/05/14 03:54:59;;;;;;;2.13;2.03;;;19.00;83.60;;;;;;5049398;28;20037;-81
2023/05/14 03:57:24;;;;;;;1.95;1.85;;;19.00;83.60;;;;;;5047845;28;20037;-80
2023/05/14 03:59:50;;;;;;;2.20;2.10;;;19.00;83.60;;;;;;5045517;28;20029;-80
2023/05/14 04:02:15;;;;;;;1.90;1.85;;;19.00;83.60;;;;;;5043619;28;20041;-81
2023/05/14 04:04:41;;;;;;;2.05;1.95;;;19.00;83.60;;;;;;5047864;28;20116;-81
2023/05/14 04:07:07;;;;;;;2.30;2.20;;;19.00;83.60;;;;;;5049139;28;20037;-81
2023/05/14 04:09:33;;;;;;;2.20;2.10;;;19.00;83.60;;;;;;5046030;28;20494;-81
2023/05/14 04:11:58;;;;;;;2.33;2.22;;;19.00;83.60;;;;;;5013638;28;20063;-81
2023/05/14 04:14:24;;;;;;;2.00;1.90;;;19.00;83.60;;;;;;5046530;28;20071;-80
2023/05/14 04:16:50;;;;;;;2.30;2.20;;;19.00;83.60;;;;;;5044430;28;20071;-81
2023/05/14 04:19:16;;;;;;;1.73;1.63;;;19.00;83.60;;;;;;5047841;28;20537;-81
2023/05/14 04:21:41;;;;;;;2.38;1.80;;;19.00;83.60;;;;;;5027040;28;20537;-81
2023/05/14 04:24:07;;;;;;;1.90;1.80;;;19.00;83.60;;;;;;5046745;28;20185;-81
2023/05/14 04:26:32;;;;;;;2.20;2.10;;;19.00;83.60;;;;;;5045331;28;20038;-80
2023/05/14 04:29:01;;;;;;;2.05;1.95;;;19.00;83.60;;;;;;5046976;28;20035;-81
2023/05/14 04:31:27;;;;;;;2.05;1.95;;;19.00;83.60;;;;;;5045295;28;20044;-80
2023/05/14 04:33:53;;;;;;;2.45;2.35;;;19.00;83.60;;;;;;5048570;28;20041;-81
2023/05/14 04:36:18;;;;;;;2.05;1.95;;;19.00;83.70;;;;;;5045909;28;20064;-81
2023/05/14 04:38:44;;;;;;;2.10;2.00;;;19.00;83.60;;;;;;5046058;28;20068;-81
2023/05/14 04:41:09;;;;;;;2.05;1.95;;;19.00;83.60;;;;;;5043869;28;20086;-81
2023/05/14 04:43:35;;;;;;;2.20;2.10;;;19.00;83.60;;;;;;5046753;28;20121;-80
2023/05/14 04:46:01;;;;;;;2.35;2.25;;;19.00;83.60;;;;;;5048413;28;20326;-80
2023/05/14 04:48:26;;;;;;;2.13;2.05;;;19.00;83.70;;;;;;5044864;28;20190;-80
2023/05/14 04:50:52;;;;;;;2.15;2.05;;;19.00;83.70;;;;;;5045209;28;20044;-81
2023/05/14 04:53:17;;;;;;;2.25;2.15;;;19.00;83.60;;;;;;5045820;28;20044;-80
2023/05/14 04:55:43;;;;;;;2.17;2.08;;;19.00;83.60;;;;;;5045109;28;20045;-81
2023/05/14 04:58:08;;;;;;;2.30;2.20;;;19.00;83.60;;;;;;5045907;28;21219;-81
2023/05/14 05:00:34;;;;;;;2.63;2.53;;;19.00;83.60;;;;;;5043144;28;20063;-81
2023/05/14 05:03:00;;;;;;;2.40;2.30;;;19.00;83.60;;;;;;5046203;28;20041;-80
2023/05/14 05:05:25;;;;;;;2.30;2.20;;;19.00;83.60;;;;;;5047346;28;20041;-80
2023/05/14 05:07:51;;;;;;;2.10;2.00;;;19.00;83.70;;;;;;5045109;28;20132;-80
2023/05/14 05:10:16;;;;;;;2.20;2.10;;;19.00;83.60;;;;;;5046344;28;20099;-81
2023/05/14 05:12:42;;;;;;;2.20;2.10;;;18.90;83.70;;;;;;5028652;28;20072;-80
2023/05/14 05:15:08;;;;;;;2.00;1.90;;;19.00;83.70;;;;;;5025904;28;20041;-80
2023/05/14 05:17:34;;;;;;;2.33;2.13;;;19.00;83.80;;;;;;5026910;28;20521;-80
2023/05/14 05:19:59;;;;;;;2.10;2.00;;;19.00;83.70;;;;;;5028282;28;20598;-80
2023/05/14 05:22:25;;;;;;;2.13;2.03;;;19.00;83.70;;;;;;5020363;28;20052;-79
2023/05/14 05:24:51;;;;;;;2.15;2.05;;;19.00;83.70;;;;;;5009647;28;20037;-80
2023/05/14 05:27:16;;;;;;;2.42;2.33;;;19.00;83.60;;;;;;5023394;28;20446;-80
2023/05/14 05:29:43;;;;;;;1.83;1.73;;;19.00;83.70;;;;;;5026094;28;20065;-80
2023/05/14 05:32:08;;;;;;;2.20;2.10;;;19.00;84.40;;;;;;5008743;28;20053;-80
2023/05/14 05:34:35;;;;;;;2.20;2.10;;;19.00;83.70;;;;;;5007995;28;20053;-81
2023/05/14 05:37:00;;;;;;;2.17;2.08;;;19.00;83.60;;;;;;5010270;28;20045;-80
2023/05/14 05:39:26;;;;;;;2.72;2.53;;;19.00;83.60;;;;;;5021758;28;20464;-80
2023/05/14 05:41:52;;;;;;;2.30;2.20;;;18.90;83.70;;;;;;5021559;28;20091;-80
2023/05/14 05:44:18;;;;;;;2.10;2.00;;;19.00;83.70;;;;;;5024941;28;20045;-80
2023/05/14 05:46:43;;;;;;;2.10;2.00;;;19.00;83.70;;;;;;5025089;28;20524;-80
2023/05/14 05:49:09;;;;;;;2.33;2.22;;;19.00;83.60;;;;;;5026714;28;20065;-81
2023/05/14 05:51:35;;;;;;;2.13;2.03;;;19.00;83.70;;;;;;5008718;28;20087;-80
2023/05/14 05:54:00;;;;;;;2.40;2.30;;;19.00;83.60;;;;;;5023864;28;20052;-81
2023/05/14 05:56:26;;;;;;;2.20;2.10;;;19.00;83.60;;;;;;5024058;28;20514;-81
2023/05/14 05:58:51;;;;;;;2.25;2.15;;;19.00;83.60;;;;;;5027933;28;20576;-81
2023/05/14 06:01:17;;;;;;;2.40;2.30;;;19.00;83.50;;;;;;5026758;28;20064;-81
2023/05/14 06:03:42;;;;;;;2.17;2.08;;;19.00;83.60;;;;;;5020148;28;20049;-81
2023/05/14 06:06:08;;;;;;;1.90;1.80;;;19.00;83.60;;;;;;5025430;28;20105;-81
2023/05/14 06:08:34;;;;;;;2.00;1.90;;;19.00;83.60;;;;;;5024794;28;20052;-80
2023/05/14 06:10:59;;;;;;;1.85;1.75;;;19.00;83.60;;;;;;5024233;28;20038;-81
2023/05/14 06:13:25;;;;;;;2.60;2.50;;;19.00;83.50;;;;;;5023622;28;20574;-80
2023/05/14 06:15:50;;;;;;;2.30;2.20;;;19.00;83.60;;;;;;5026034;28;20049;-81
2023/05/14 06:18:16;;;;;;;1.90;1.80;;;19.00;83.50;;;;;;5025129;28;20041;-80
2023/05/14 06:20:42;;;;;;;2.10;2.00;;;19.00;83.60;;;;;;5020709;28;20129;-80
2023/05/14 06:23:07;;;;;;;2.30;2.10;;;19.10;83.60;;;;;;5023755;28;20454;-81
2023/05/14 06:25:33;;;;;;;2.28;2.17;;;19.00;83.50;;;;;;5023676;28;20080;-81
2023/05/14 06:27:58;;;;;;;2.10;2.00;;;19.00;83.50;;;;;;5007838;28;20525;-81
2023/05/14 06:30:24;;;;;;;2.28;2.17;;;19.10;83.50;;;;;;5025727;28;20498;-81
2023/05/14 06:32:50;;;;;;;2.13;2.03;;;19.10;83.50;;;;;;5022928;28;20075;-81
2023/05/14 06:35:19;;;;;;;2.08;1.98;;;19.00;83.50;;;;;;5024528;28;20640;-81
2023/05/14 06:37:45;;;;;;;1.95;1.85;;;19.00;83.40;;;;;;5021223;28;20432;-81
2023/05/14 06:40:11;;;;;;;2.13;2.03;;;19.10;83.40;;;;;;5026327;28;20052;-81
2023/05/14 06:42:37;;;;;;;2.00;1.90;;;19.10;84.20;;;;;;5023909;28;20037;-81
2023/05/14 06:45:03;;;;;;;1.92;1.83;;;19.10;83.40;;;;;;5021581;28;20048;-81
2023/05/14 06:47:29;;;;;;;1.95;1.88;;;19.10;83.40;;;;;;5023930;28;20111;-81
2023/05/14 06:49:57;;;;;;;1.88;1.77;;;19.10;83.40;;;;;;5022677;28;20075;-81
2023/05/14 06:52:23;;;;;;;1.80;1.70;;;19.10;83.40;;;;;;5025951;28;20465;-81
2023/05/14 06:54:48;;;;;;;1.88;1.80;;;19.10;83.40;;;;;;5024915;28;20573;-80
2023/05/14 06:57:14;;;;;;;1.75;1.67;;;19.10;83.40;;;;;;5024212;28;20411;-81
2023/05/14 06:59:40;;;;;;;1.70;1.70;;;19.10;83.50;;;;;;5022264;28;20056;-80
2023/05/14 07:02:05;;;;;;;2.17;2.08;;;19.10;83.40;;;;;;5024859;28;20045;-81
2023/05/14 07:04:31;;;;;;;1.88;1.80;;;19.10;83.50;;;;;;5022556;28;20503;-79
2023/05/14 07:06:57;;;;;;;2.03;1.92;;;19.10;83.40;;;;;;5024492;28;20037;-81
2023/05/14 07:09:22;;;;;;;2.05;1.95;;;19.10;83.40;;;;;;5021346;28;20044;-81
2023/05/14 07:11:48;;;;;;;2.10;2.00;;;19.10;83.40;;;;;;5021539;28;20052;-80
2023/05/14 07:14:13;;;;;;;2.10;2.00;;;19.10;83.50;;;;;;5021721;28;20050;-82
2023/05/14 07:16:40;;;;;;;2.00;1.90;;;19.10;83.40;;;;;;5024270;28;20051;-81
2023/05/14 07:19:05;;;;;;;1.85;1.75;;;19.10;83.40;;;;;;5027711;28;20044;-82
2023/05/14 07:21:31;;;;;;;1.83;1.70;;;19.10;83.40;;;;;;5024878;28;20046;-82
2023/05/14 07:23:57;;;;;;;1.77;1.67;;;19.10;83.50;;;;;;5012542;28;20045;-82
2023/05/14 07:26:23;;;;;;;2.00;1.90;;;19.10;83.60;;;;;;5056307;28;20573;-82
2023/05/14 07:28:49;;;;;;;1.55;1.52;;;19.10;83.60;;;;;;5054059;28;20032;-82
2023/05/14 07:31:14;;;;;;;2.00;1.90;;;19.10;83.60;;;;;;5056258;28;20132;-82
2023/05/14 07:33:40;;;;;;;1.95;1.85;;;19.10;83.70;;;;;;5053451;28;20123;-82
2023/05/14 07:36:06;;;;;;;1.55;1.50;;;19.10;83.70;;;;;;5056797;28;20426;-82
2023/05/14 07:38:31;;;;;;;1.92;1.83;;;19.10;83.60;;;;;;5055167;28;20114;-82
2023/05/14 07:40:57;;;;;;;1.83;1.83;;;19.10;83.70;;;;;;5054403;28;20079;-82
2023/05/14 07:43:22;;;;;;;2.00;1.90;;;19.10;83.40;;;;;;5053019;28;20044;-82
2023/05/14 07:45:48;;;;;;;2.05;1.95;;;19.10;84.20;;;;;;5053687;28;20053;-82
2023/05/14 07:48:14;;;;;;;1.80;1.70;;;19.10;83.40;;;;;;5052519;28;20048;-81
2023/05/14 07:50:39;;;;;;;1.70;1.70;;;19.20;83.40;;;;;;5051839;28;20041;-80
2023/05/14 07:53:05;;;;;;;2.05;1.95;;;19.20;83.30;;;;;;5051552;28;20494;-81
2023/05/14 07:55:30;;;;;;;1.70;1.60;;;19.20;83.30;;;;;;5054971;28;20045;-82
2023/05/14 07:57:56;;;;;;;2.65;1.88;;;19.20;83.20;;;;;;5052009;28;20406;-81
2023/05/14 08:00:22;;;;;;;1.83;1.73;;;19.30;83.40;;;;;;5050526;28;20113;-82
2023/05/14 08:02:47;;;;;;;2.10;2.00;;;19.30;83.50;;;;;;5055018;28;20041;-83
2023/05/14 08:05:13;;;;;;;1.73;1.67;;;19.30;83.50;;;;;;5052024;28;20049;-83
2023/05/14 08:07:39;;;;;;;1.88;1.80;;;19.30;83.50;;;;;;5053269;28;20037;-81
2023/05/14 08:10:06;;;;;;;1.73;1.63;;;19.30;84.30;;;;;;5038780;28;20037;-82
2023/05/14 08:12:32;;;;;;;1.75;1.70;;;19.30;83.80;;;;;;5042695;28;20095;-82
2023/05/14 08:14:58;;;;;;;1.85;1.75;;;19.30;83.70;;;;;;5053814;28;20459;-82
2023/05/14 08:17:24;;;;;;;2.05;1.95;;;19.30;83.60;;;;;;5037228;28;20114;-82
2023/05/14 08:19:49;;;;;;;1.65;1.60;;;19.30;83.60;;;;;;5053738;28;20036;-82
2023/05/14 08:22:15;;;;;;;1.77;1.67;;;19.30;83.70;;;;;;5056104;28;20064;-82
2023/05/14 08:24:41;;;;;;;2.00;1.90;;;19.20;83.60;;;;;;5056025;28;20501;-81
2023/05/14 08:27:08;;;;;;;1.70;1.60;;;19.20;83.70;;;;;;5057146;28;20040;-82
2023/05/14 08:29:33;;;;;;;1.90;1.80;;;19.20;83.70;;;;;;5051252;28;20174;-82
2023/05/14 08:31:59;;;;;;;1.70;1.60;;;19.20;83.70;;;;;;5035898;28;20609;-82
2023/05/14 08:34:25;;;;;;;1.88;1.77;;;19.30;83.60;;;;;;5036408;28;20037;-82
2023/05/14 08:36:50;;;;;;;1.80;1.70;;;19.30;83.60;;;;;;5057332;28;20041;-82
2023/05/14 08:39:16;;;;;;;1.90;1.80;;;19.40;83.50;;;;;;5034618;28;20033;-82
2023/05/14 08:41:42;;;;;;;1.58;1.50;;;19.40;83.40;;;;;;5051732;28;20052;-82
2023/05/14 08:44:17;;;;;;;1.52;1.52;;;19.40;83.20;;;;;;5036231;28;20410;-82
2023/05/14 08:46:43;;;;;;;1.52;1.52;;;19.40;83.20;;;;;;5038556;28;20045;-82
2023/05/14 08:49:30;;;;;;;1.55;1.55;;;19.40;83.10;;;;;;5055108;28;20438;-82
2023/05/14 08:51:56;;;;;;;1.55;1.45;;;19.50;83.30;;;;;;5053730;28;20033;-81
2023/05/14 08:54:23;;;;;;;1.65;1.65;;;19.50;83.30;;;;;;5037929;28;20688;-82
2023/05/14 08:56:49;;;;;;;1.80;1.70;;;19.50;83.40;;;;;;5041518;28;20047;-81
2023/05/14 08:59:15;;;;;;;2.05;1.95;;;19.50;83.20;;;;;;5020343;28;20029;-82
2023/05/14 09:01:44;;;;;;;1.52;1.52;;;19.50;83.30;;;;;;5044951;28;20040;-81
2023/05/14 09:04:09;;;;;;;1.77;1.67;;;19.50;83.40;;;;;;5046906;28;20527;-82
2023/05/14 09:06:36;;;;;;;1.63;1.63;;;19.50;83.30;;;;;;4996131;28;20086;-82
2023/05/14 09:09:02;;;;;;;1.85;1.75;;;19.50;83.20;;;;;;5058180;28;20123;-82
2023/05/14 09:11:28;;;;;;;1.60;1.50;;;19.50;83.20;;;;;;5045884;28;20058;-82
2023/05/14 09:13:54;;;;;;;1.83;1.73;;;19.50;83.20;;;;;;5025523;28;20053;-82
2023/05/14 09:16:19;;;;;;;1.77;1.77;;;19.50;83.20;;;;;;5046756;28;20041;-81
2023/05/14 09:18:45;;;;;;;1.90;1.80;;;19.50;83.20;;;;;;5044552;28;20051;-81
2023/05/14 09:21:15;;;;;;;1.48;1.48;;;19.50;83.10;;;;;;5044556;28;20033;-82
2023/05/14 09:23:42;;;;;;;1.52;1.52;;;19.50;83.10;;;;;;5042185;28;20098;-81
2023/05/14 09:26:07;;;;;;;1.45;1.45;;;19.50;83.10;;;;;;5061738;28;20518;-82
2023/05/14 09:28:33;;;;;;;1.40;1.40;;;19.50;83.00;;;;;;5028683;28;20068;-82
2023/05/14 09:30:59;;;;;;;1.50;1.50;;;19.60;83.00;;;;;;5057313;28;20513;-81
2023/05/14 09:33:26;;;;;;;1.88;1.77;;;19.60;83.00;;;;;;5051120;28;20055;-82
2023/05/14 09:35:55;;;;;;;1.55;1.55;;;19.60;82.60;;;;;;5055081;28;20040;-81
2023/05/14 09:38:26;;;;;;;1.60;1.60;;;19.60;82.60;;;;;;5039298;28;20093;-82
2023/05/14 09:40:52;;;;;;;1.50;1.50;;;19.60;82.70;;;;;;5051593;28;20048;-82
2023/05/14 09:43:17;;;;;;;1.70;1.60;;;19.60;83.40;;;;;;5057874;28;20048;-82
2023/05/14 09:45:43;;;;;;;1.90;1.80;;;19.60;82.70;;;;;;5031115;28;20051;-81
2023/05/14 09:48:09;;;;;;;1.50;1.50;;;19.60;82.70;;;;;;5051571;28;20146;-82
2023/05/14 09:50:41;;;;;;;1.88;1.70;;;19.60;82.70;;;;;;5053655;28;20494;-82
2023/05/14 09:53:07;;;;;;;1.67;1.60;;;19.60;82.80;;;;;;5052379;28;20049;-82
2023/05/14 09:55:32;;;;;;;1.55;1.52;;;19.60;82.60;;;;;;5055131;28;20040;-82
2023/05/14 09:57:58;;;;;;;1.45;1.45;;;19.60;82.60;;;;;;5056248;28;20474;-82
2023/05/14 10:00:23;;;;;;;1.80;1.70;;;19.60;82.70;;;;;;5031642;28;20037;-82
2023/05/14 10:02:50;;;;;;;1.50;1.50;;;19.60;83.40;;;;;;5050509;28;20037;-83
2023/05/14 10:05:16;;;;;;;2.00;1.90;;;19.70;82.70;;;;;;5050393;28;20589;-82
2023/05/14 10:07:43;;;;;;;2.10;2.00;;;19.70;82.70;;;;;;5069269;28;20048;-81
2023/05/14 10:10:12;;;;;;;1.92;1.83;;;19.60;82.60;;;;;;5023736;28;20043;-81
2023/05/14 10:12:38;;;;;;;1.98;1.88;;;19.70;82.60;;;;;;5045627;28;20059;-81
2023/05/14 10:15:08;;;;;;;2.05;1.95;;;19.70;82.60;;;;;;5035041;28;20045;-82
2023/05/14 10:17:34;;;;;;;2.00;1.90;;;19.70;82.60;;;;;;5050560;28;20043;-82
2023/05/14 10:20:01;;;;;;;2.03;1.92;;;19.70;82.60;;;;;;5039041;28;20485;-81
2023/05/14 10:22:32;;;;;;;2.25;2.15;;;19.60;82.50;;;;;;5038135;28;20044;-81
2023/05/14 10:24:58;;;;;;;1.70;1.70;;;19.70;82.60;;;;;;5036576;28;20541;-81
2023/05/14 10:27:24;;;;;;;2.00;1.90;;;19.70;82.50;;;;;;5033301;28;20049;-81
2023/05/14 10:29:52;;;;;;;1.85;1.80;;;19.70;82.60;;;;;;5052291;28;20047;-81
2023/05/14 10:32:18;;;;;;;1.88;1.88;;;19.70;82.60;;;;;;5054613;28;20116;-81
2023/05/14 10:34:43;;;;;;;1.83;1.83;;;19.70;82.50;;;;;;5037464;28;20041;-81
2023/05/14 10:37:10;;;;;;;1.95;1.85;;;19.70;82.50;;;;;;5041282;28;20260;-82
2023/05/14 10:39:39;;;;;;;1.20;1.20;;;19.80;82.50;;;;;;5051895;28;20336;-82
2023/05/14 10:42:05;;;;;;;1.65;1.60;;;19.80;82.50;;;;;;5050583;28;20044;-82
2023/05/14 10:44:31;;;;;;;1.80;1.80;;;19.80;82.40;;;;;;5047481;28;20038;-82
2023/05/14 10:46:57;;;;;;;1.88;1.77;;;19.80;83.10;;;;;;5051705;28;20041;-82
2023/05/14 10:49:23;;;;;;;1.80;1.73;;;19.80;82.30;;;;;;5054719;28;20029;-82
2023/05/14 10:51:48;;;;;;;2.00;1.90;;;19.80;82.40;;;;;;5036316;28;20051;-82
2023/05/14 10:54:15;;;;;;;1.40;1.40;;;19.80;82.40;;;;;;5037379;28;20048;-82
2023/05/14 10:56:44;;;;;;;1.40;1.40;;;19.80;82.30;;;;;;5034389;28;20033;-82
2023/05/14 10:59:10;;;;;;;1.80;1.70;;;19.80;82.20;;;;;;5060158;28;20136;-82
2023/05/14 11:01:38;;;;;;;1.80;1.77;;;19.80;82.20;;;;;;5043667;28;20037;-81
2023/05/14 11:04:04;;;;;;;1.40;1.40;;;19.80;82.20;;;;;;5044504;28;20124;-81
2023/05/14 11:06:30;;;;;;;1.70;1.60;;;19.80;82.20;;;;;;5058344;28;20113;-82
2023/05/14 11:08:55;;;;;;;1.65;1.65;;;19.80;82.30;;;;;;5040697;28;20084;-82
2023/05/14 11:11:21;;;;;;;1.50;1.50;;;19.80;82.30;;;;;;5041378;28;20032;-81
2023/05/14 11:13:47;;;;;;;1.85;1.73;;;19.80;82.30;;;;;;5022301;28;20029;-81
2023/05/14 11:16:17;;;;;;;1.50;1.50;;;19.90;82.30;;;;;;5045765;28;20041;-82
2023/05/14 11:18:43;;;;;;;1.65;1.65;;;19.90;82.30;;;;;;5041443;28;20048;-82
2023/05/14 11:21:08;;;;;;;1.70;1.70;;;19.80;82.20;;;;;;5052613;28;20036;-82
2023/05/14 11:23:34;;;;;;;1.70;1.70;;;19.80;82.20;;;;;;5053850;28;20059;-82
2023/05/14 11:25:59;;;;;;;1.75;1.65;;;19.90;82.30;;;;;;5059185;28;20383;-82
2023/05/14 11:28:25;;;;;;;1.30;1.30;;;19.90;82.30;;;;;;5058552;28;20118;-82
2023/05/14 11:30:51;;;;;;;1.52;1.52;;;19.90;82.20;;;;;;5047579;28;20064;-81
2023/05/14 11:33:17;;;;;;;1.77;1.67;;;19.90;82.40;;;;;;5054164;28;20040;-81
2023/05/14 11:35:44;;;;;;;1.63;1.52;;;19.90;82.30;;;;;;5039927;28;20497;-82
2023/05/14 11:38:27;;;;;;;1.65;1.58;;;19.90;82.30;;;;;;5054726;28;20041;-82
2023/05/14 11:40:54;;;;;;;1.57;1.57;;;19.90;82.30;;;;;;5052030;28;20048;-81
2023/05/14 11:43:20;;;;;;;1.65;1.63;;;19.90;82.30;;;;;;5052744;28;20053;-82
2023/05/14 11:45:50;;;;;;;1.55;1.55;;;19.90;82.10;;;;;;5042218;28;20409;-82
2023/05/14 11:48:16;;;;;;;1.35;1.35;;;19.90;82.20;;;;;;5051229;28;20387;-82
2023/05/14 11:50:49;;;;;;;1.13;1.13;;;19.90;82.30;;;;;;5053964;28;20037;-82
2023/05/14 11:53:25;;;;;;;1.45;1.45;;;19.90;82.20;;;;;;5052465;28;20146;-82
2023/05/14 11:55:53;;;;;;;1.35;1.35;;;19.90;82.10;;;;;;5038707;28;20041;-81
2023/05/14 11:58:18;;;;;;;1.30;1.30;;;19.90;82.20;;;;;;5058768;28;20048;-82
2023/05/14 12:00:44;;;;;;;1.50;1.40;;;19.90;82.20;;;;;;5059552;28;20481;-82
2023/05/14 12:03:10;;;;;;;1.38;1.38;;;19.90;82.30;;;;;;5052436;28;20060;-82
2023/05/14 12:05:39;;;;;;;1.50;1.50;;;19.90;82.10;;;;;;5039455;28;20057;-83
2023/05/14 12:08:30;;;;;;;1.50;1.50;;;19.90;83.00;;;;;;5056399;28;20709;-82
2023/05/14 12:10:57;;;;;;;1.60;1.60;;;19.90;82.20;;;;;;5054953;28;20044;-81
2023/05/14 12:13:26;;;;;;;1.65;1.60;;;20.00;82.20;;;;;;5058805;28;20096;-82
2023/05/14 12:15:56;;;;;;;1.67;1.67;;;20.00;83.00;;;;;;5056551;28;20048;-81
2023/05/14 12:18:23;;;;;;;1.40;1.40;;;20.00;82.20;;;;;;5056081;28;20047;-82
2023/05/14 12:20:50;;;;;;;1.73;1.63;;;20.00;82.20;;;;;;5056707;28;20063;-82
2023/05/14 12:23:16;;;;;;;1.27;1.27;;;20.00;82.10;;;;;;5053243;28;20068;-82
2023/05/14 12:25:51;;;;;;;1.70;1.60;;;20.00;82.10;;;;;;5024781;28;20525;-82
2023/05/14 12:28:17;;;;;;;1.77;1.77;;;20.00;82.10;;;;;;5056615;28;20033;-81
2023/05/14 12:30:43;;;;;;;1.80;1.70;;;20.00;82.10;;;;;;5021382;28;20128;-82
2023/05/14 12:33:08;;;;;;;1.20;1.20;;;20.00;82.00;;;;;;5041313;28;20039;-82
2023/05/14 12:35:35;;;;;;;1.73;1.63;;;20.00;82.00;;;;;;5023463;28;20529;-82
2023/05/14 12:38:02;;;;;;;1.60;1.60;;;20.00;82.00;;;;;;5052358;28;20029;-82
2023/05/14 12:40:27;;;;;;;1.70;1.70;;;20.00;82.10;;;;;;5035936;28;20592;-82
2023/05/14 12:42:53;;;;;;;1.50;1.40;;;20.00;82.10;;;;;;5040665;28;20040;-81